sensor_id;sensor_type;location;lat;lon;timestamp;pressure;altitude;pressure_sealevel;temperature;humidity
62697;BME280;48761;42.680;23.312;2023-11-21T00:01:08;94634.31;;;6.24;77.40
62697;BME280;48761;42.680;23.312;2023-11-21T00:03:34;94621.00;;;6.25;77.17
62697;BME280;48761;42.680;23.312;2023-11-21T00:06:00;94627.16;;;6.26;77.29
62697;BME280;48761;42.680;23.312;2023-11-21T00:08:28;94622.47;;;6.31;76.71
62697;BME280;48761;42.680;23.312;2023-11-21T00:10:54;94606.72;;;6.13;76.95
62697;BME280;48761;42.680;23.312;2023-11-21T00:13:19;94628.84;;;6.27;76.84
62697;BME280;48761;42.680;23.312;2023-11-21T00:15:45;94627.31;;;6.23;77.10
62697;BME280;48761;42.680;23.312;2023-11-21T00:18:12;94630.66;;;6.26;77.10
62697;BME280;48761;42.680;23.312;2023-11-21T00:20:38;94599.94;;;6.09;77.26
62697;BME280;48761;42.680;23.312;2023-11-21T00:23:04;94609.69;;;6.07;77.22
62697;BME280;48761;42.680;23.312;2023-11-21T00:25:32;94613.03;;;6.11;77.21
62697;BME280;48761;42.680;23.312;2023-11-21T00:28:23;94612.19;;;6.10;77.40
62697;BME280;48761;42.680;23.312;2023-11-21T00:30:57;94580.31;;;5.65;78.43
62697;BME280;48761;42.680;23.312;2023-11-21T00:33:23;94622.91;;;6.07;78.32
62697;BME280;48761;42.680;23.312;2023-11-21T00:35:49;94627.31;;;6.07;78.22
62697;BME280;48761;42.680;23.312;2023-11-21T00:38:15;94619.75;;;6.16;77.84
62697;BME280;48761;42.680;23.312;2023-11-21T00:40:41;94628.78;;;6.12;78.08
62697;BME280;48761;42.680;23.312;2023-11-21T00:43:07;94615.25;;;6.19;77.73
62697;BME280;48761;42.680;23.312;2023-11-21T00:45:46;94614.53;;;5.99;78.04
62697;BME280;48761;42.680;23.312;2023-11-21T00:48:22;94585.25;;;5.87;78.20
62697;BME280;48761;42.680;23.312;2023-11-21T00:50:55;94604.16;;;6.12;77.80
62697;BME280;48761;42.680;23.312;2023-11-21T00:53:39;94627.47;;;6.20;77.63
62697;BME280;48761;42.680;23.312;2023-11-21T00:56:05;94583.22;;;5.92;77.76
62697;BME280;48761;42.680;23.312;2023-11-21T00:58:34;94599.94;;;6.09;77.99
62697;BME280;48761;42.680;23.312;2023-11-21T01:01:23;94607.66;;;6.12;78.24
62697;BME280;48761;42.680;23.312;2023-11-21T01:03:51;94569.53;;;5.86;77.82
62697;BME280;48761;42.680;23.312;2023-11-21T01:06:19;94619.16;;;6.11;77.53
62697;BME280;48761;42.680;23.312;2023-11-21T01:08:45;94615.31;;;6.01;78.24
62697;BME280;48761;42.680;23.312;2023-11-21T01:11:11;94577.09;;;5.76;78.28
62697;BME280;48761;42.680;23.312;2023-11-21T01:13:41;94605.44;;;5.88;78.90
62697;BME280;48761;42.680;23.312;2023-11-21T01:16:10;94608.00;;;5.74;79.31
62697;BME280;48761;42.680;23.312;2023-11-21T01:18:36;94582.00;;;5.33;81.08
62697;BME280;48761;42.680;23.312;2023-11-21T01:21:02;94612.88;;;5.13;82.76
62697;BME280;48761;42.680;23.312;2023-11-21T01:23:29;94618.59;;;5.56;81.03
62697;BME280;48761;42.680;23.312;2023-11-21T01:25:56;94616.22;;;5.67;80.30
62697;BME280;48761;42.680;23.312;2023-11-21T01:28:23;94612.06;;;5.63;80.63
62697;BME280;48761;42.680;23.312;2023-11-21T01:30:49;94612.16;;;5.78;80.09
62697;BME280;48761;42.680;23.312;2023-11-21T01:33:16;94598.00;;;5.46;80.67
62697;BME280;48761;42.680;23.312;2023-11-21T01:35:42;94589.59;;;5.56;80.22
62697;BME280;48761;42.680;23.312;2023-11-21T01:38:09;94596.31;;;5.78;79.66
62697;BME280;48761;42.680;23.312;2023-11-21T01:40:36;94592.94;;;5.76;79.00
62697;BME280;48761;42.680;23.312;2023-11-21T01:43:04;94570.78;;;5.62;78.76
62697;BME280;48761;42.680;23.312;2023-11-21T01:45:31;94594.81;;;5.74;78.81
62697;BME280;48761;42.680;23.312;2023-11-21T01:47:58;94595.28;;;5.48;79.73
62697;BME280;48761;42.680;23.312;2023-11-21T01:50:25;94591.72;;;5.65;79.09
62697;BME280;48761;42.680;23.312;2023-11-21T01:52:51;94584.69;;;5.32;80.04
62697;BME280;48761;42.680;23.312;2023-11-21T01:55:18;94599.88;;;5.44;80.57
62697;BME280;48761;42.680;23.312;2023-11-21T01:57:48;94598.72;;;4.98;82.53
62697;BME280;48761;42.680;23.312;2023-11-21T02:00:15;94609.59;;;4.74;84.09
62697;BME280;48761;42.680;23.312;2023-11-21T02:02:45;94602.53;;;5.10;82.09
62697;BME280;48761;42.680;23.312;2023-11-21T02:05:12;94603.03;;;5.17;81.67
62697;BME280;48761;42.680;23.312;2023-11-21T02:07:39;94598.25;;;5.08;81.78
62697;BME280;48761;42.680;23.312;2023-11-21T02:10:07;94606.94;;;5.10;81.61
62697;BME280;48761;42.680;23.312;2023-11-21T02:12:33;94608.59;;;4.95;82.20
62697;BME280;48761;42.680;23.312;2023-11-21T02:14:59;94603.31;;;4.95;82.51
62697;BME280;48761;42.680;23.312;2023-11-21T02:17:26;94597.72;;;5.01;82.04
62697;BME280;48761;42.680;23.312;2023-11-21T02:19:52;94583.25;;;4.92;81.86
62697;BME280;48761;42.680;23.312;2023-11-21T02:22:19;94605.56;;;5.02;82.23
62697;BME280;48761;42.680;23.312;2023-11-21T02:24:45;94589.78;;;4.67;83.89
62697;BME280;48761;42.680;23.312;2023-11-21T02:27:14;94600.59;;;4.96;82.27
62697;BME280;48761;42.680;23.312;2023-11-21T02:29:39;94589.25;;;5.12;81.65
62697;BME280;48761;42.680;23.312;2023-11-21T02:32:06;94597.69;;;5.19;81.07
62697;BME280;48761;42.680;23.312;2023-11-21T02:34:32;94599.16;;;5.24;80.90
62697;BME280;48761;42.680;23.312;2023-11-21T02:36:58;94599.31;;;5.21;81.10
62697;BME280;48761;42.680;23.312;2023-11-21T02:39:26;94589.91;;;5.33;80.64
62697;BME280;48761;42.680;23.312;2023-11-21T02:41:52;94584.09;;;5.26;80.37
62697;BME280;48761;42.680;23.312;2023-11-21T02:44:18;94601.72;;;5.42;80.60
62697;BME280;48761;42.680;23.312;2023-11-21T02:46:45;94591.88;;;5.46;79.84
62697;BME280;48761;42.680;23.312;2023-11-21T02:49:13;94575.88;;;5.33;79.40
62697;BME280;48761;42.680;23.312;2023-11-21T02:51:41;94588.97;;;5.34;79.42
62697;BME280;48761;42.680;23.312;2023-11-21T02:54:08;94553.91;;;5.16;79.06
62697;BME280;48761;42.680;23.312;2023-11-21T02:56:35;94576.53;;;5.20;78.95
62697;BME280;48761;42.680;23.312;2023-11-21T02:59:01;94573.72;;;5.23;79.05
62697;BME280;48761;42.680;23.312;2023-11-21T03:01:28;94571.56;;;5.14;79.00
62697;BME280;48761;42.680;23.312;2023-11-21T03:03:56;94554.22;;;5.10;79.10
62697;BME280;48761;42.680;23.312;2023-11-21T03:06:22;94554.50;;;5.21;78.96
62697;BME280;48761;42.680;23.312;2023-11-21T03:08:49;94542.66;;;4.78;80.16
62697;BME280;48761;42.680;23.312;2023-11-21T03:11:16;94539.88;;;4.81;80.50
62697;BME280;48761;42.680;23.312;2023-11-21T03:13:42;94544.72;;;4.37;82.46
62697;BME280;48761;42.680;23.312;2023-11-21T03:16:09;94532.97;;;4.45;82.51
62697;BME280;48761;42.680;23.312;2023-11-21T03:18:36;94538.16;;;4.29;82.79
62697;BME280;48761;42.680;23.312;2023-11-21T03:21:02;94576.63;;;4.67;82.50
62697;BME280;48761;42.680;23.312;2023-11-21T03:23:28;94589.31;;;4.76;81.91
62697;BME280;48761;42.680;23.312;2023-11-21T03:26:01;94555.41;;;4.34;82.69
62697;BME280;48761;42.680;23.312;2023-11-21T03:28:28;94588.00;;;4.50;83.54
62697;BME280;48761;42.680;23.312;2023-11-21T03:30:55;94590.09;;;4.60;82.59
62697;BME280;48761;42.680;23.312;2023-11-21T03:33:25;94554.31;;;4.21;83.87
62697;BME280;48761;42.680;23.312;2023-11-21T03:35:52;94554.31;;;4.39;83.42
62697;BME280;48761;42.680;23.312;2023-11-21T03:38:19;94568.09;;;4.44;82.81
62697;BME280;48761;42.680;23.312;2023-11-21T03:40:46;94578.78;;;3.86;85.82
62697;BME280;48761;42.680;23.312;2023-11-21T03:43:12;94596.38;;;4.03;86.64
62697;BME280;48761;42.680;23.312;2023-11-21T03:45:39;94592.25;;;4.17;85.73
62697;BME280;48761;42.680;23.312;2023-11-21T03:48:06;94587.25;;;4.10;86.23
62697;BME280;48761;42.680;23.312;2023-11-21T03:50:35;94537.63;;;4.22;84.89
62697;BME280;48761;42.680;23.312;2023-11-21T03:53:02;94586.22;;;4.50;84.96
62697;BME280;48761;42.680;23.312;2023-11-21T03:55:28;94580.00;;;4.15;84.86
62697;BME280;48761;42.680;23.312;2023-11-21T03:57:54;94577.47;;;3.95;86.63
62697;BME280;48761;42.680;23.312;2023-11-21T04:00:21;94576.72;;;4.30;85.59
62697;BME280;48761;42.680;23.312;2023-11-21T04:02:47;94579.59;;;4.06;86.63
62697;BME280;48761;42.680;23.312;2023-11-21T04:05:15;94572.72;;;4.03;86.75
62697;BME280;48761;42.680;23.312;2023-11-21T04:07:42;94576.16;;;3.86;87.46
62697;BME280;48761;42.680;23.312;2023-11-21T04:10:08;94560.59;;;3.81;87.76
62697;BME280;48761;42.680;23.312;2023-11-21T04:12:36;94567.28;;;3.88;87.63
62697;BME280;48761;42.680;23.312;2023-11-21T04:15:03;94568.31;;;4.03;87.23
62697;BME280;48761;42.680;23.312;2023-11-21T04:17:29;94563.41;;;3.96;87.78
62697;BME280;48761;42.680;23.312;2023-11-21T04:19:55;94559.09;;;4.12;86.55
62697;BME280;48761;42.680;23.312;2023-11-21T04:22:20;94573.47;;;4.05;87.09
62697;BME280;48761;42.680;23.312;2023-11-21T04:24:46;94541.56;;;3.76;87.57
62697;BME280;48761;42.680;23.312;2023-11-21T04:27:13;94545.28;;;3.89;87.36
62697;BME280;48761;42.680;23.312;2023-11-21T04:29:40;94551.03;;;3.98;87.50
62697;BME280;48761;42.680;23.312;2023-11-21T04:32:07;94554.63;;;4.32;85.75
62697;BME280;48761;42.680;23.312;2023-11-21T04:34:41;94525.06;;;4.27;85.12
62697;BME280;48761;42.680;23.312;2023-11-21T04:37:06;94548.69;;;3.74;87.91
62697;BME280;48761;42.680;23.312;2023-11-21T04:39:32;94554.03;;;4.45;85.54
62697;BME280;48761;42.680;23.312;2023-11-21T04:41:58;94574.34;;;4.06;86.49
62697;BME280;48761;42.680;23.312;2023-11-21T04:44:26;94560.75;;;3.78;87.41
62697;BME280;48761;42.680;23.312;2023-11-21T04:46:55;94564.88;;;3.64;88.96
62697;BME280;48761;42.680;23.312;2023-11-21T04:49:21;94561.16;;;3.88;88.25
62697;BME280;48761;42.680;23.312;2023-11-21T04:51:47;94582.31;;;4.04;87.67
62697;BME280;48761;42.680;23.312;2023-11-21T04:54:13;94584.75;;;4.44;85.78
62697;BME280;48761;42.680;23.312;2023-11-21T04:56:40;94581.13;;;4.65;85.03
62697;BME280;48761;42.680;23.312;2023-11-21T04:59:06;94551.97;;;4.50;84.48
62697;BME280;48761;42.680;23.312;2023-11-21T05:01:33;94576.63;;;4.49;84.94
62697;BME280;48761;42.680;23.312;2023-11-21T05:04:00;94561.84;;;4.46;84.99
62697;BME280;48761;42.680;23.312;2023-11-21T05:06:32;94570.41;;;4.68;84.19
62697;BME280;48761;42.680;23.312;2023-11-21T05:08:58;94583.88;;;4.79;84.27
62697;BME280;48761;42.680;23.312;2023-11-21T05:11:26;94577.84;;;4.95;83.36
62697;BME280;48761;42.680;23.312;2023-11-21T05:13:53;94572.94;;;5.05;82.78
62697;BME280;48761;42.680;23.312;2023-11-21T05:16:19;94539.97;;;4.80;82.44
62697;BME280;48761;42.680;23.312;2023-11-21T05:18:46;94571.19;;;4.88;82.94
62697;BME280;48761;42.680;23.312;2023-11-21T05:21:11;94560.66;;;4.88;82.85
62697;BME280;48761;42.680;23.312;2023-11-21T05:23:45;94559.53;;;4.92;83.23
62697;BME280;48761;42.680;23.312;2023-11-21T05:26:13;94552.31;;;4.62;83.93
62697;BME280;48761;42.680;23.312;2023-11-21T05:28:39;94550.56;;;4.78;83.68
62697;BME280;48761;42.680;23.312;2023-11-21T05:31:11;94567.41;;;4.58;83.99
62697;BME280;48761;42.680;23.312;2023-11-21T05:33:37;94575.66;;;4.32;86.14
62697;BME280;48761;42.680;23.312;2023-11-21T05:36:03;94545.81;;;4.51;84.83
62697;BME280;48761;42.680;23.312;2023-11-21T05:38:29;94571.34;;;4.31;85.58
62697;BME280;48761;42.680;23.312;2023-11-21T05:40:57;94570.09;;;4.74;84.90
62697;BME280;48761;42.680;23.312;2023-11-21T05:43:26;94537.66;;;4.38;85.15
62697;BME280;48761;42.680;23.312;2023-11-21T05:45:54;94568.63;;;4.51;85.94
62697;BME280;48761;42.680;23.312;2023-11-21T05:48:29;94578.50;;;4.99;84.43
62697;BME280;48761;42.680;23.312;2023-11-21T05:50:57;94563.13;;;4.73;84.53
62697;BME280;48761;42.680;23.312;2023-11-21T05:53:23;94569.53;;;5.03;84.21
62697;BME280;48761;42.680;23.312;2023-11-21T05:55:50;94536.44;;;4.28;85.94
62697;BME280;48761;42.680;23.312;2023-11-21T05:58:17;94561.44;;;4.54;85.78
62697;BME280;48761;42.680;23.312;2023-11-21T06:00:44;94573.59;;;4.75;84.86
62697;BME280;48761;42.680;23.312;2023-11-21T06:03:10;94574.84;;;4.67;85.01
62697;BME280;48761;42.680;23.312;2023-11-21T06:05:37;94570.25;;;4.53;85.60
62697;BME280;48761;42.680;23.312;2023-11-21T06:08:04;94575.84;;;4.29;86.57
62697;BME280;48761;42.680;23.312;2023-11-21T06:10:31;94566.56;;;4.40;86.05
62697;BME280;48761;42.680;23.312;2023-11-21T06:12:57;94572.50;;;4.25;85.75
62697;BME280;48761;42.680;23.312;2023-11-21T06:15:24;94543.03;;;4.19;85.84
62697;BME280;48761;42.680;23.312;2023-11-21T06:17:52;94549.97;;;4.02;86.65
62697;BME280;48761;42.680;23.312;2023-11-21T06:20:18;94559.66;;;4.19;86.40
62697;BME280;48761;42.680;23.312;2023-11-21T06:22:46;94577.09;;;4.40;85.75
62697;BME280;48761;42.680;23.312;2023-11-21T06:25:14;94581.75;;;4.52;85.90
62697;BME280;48761;42.680;23.312;2023-11-21T06:27:42;94604.03;;;4.63;84.66
62697;BME280;48761;42.680;23.312;2023-11-21T06:30:09;94590.78;;;4.64;84.68
62697;BME280;48761;42.680;23.312;2023-11-21T06:32:36;94599.38;;;4.86;84.04
62697;BME280;48761;42.680;23.312;2023-11-21T06:35:03;94602.81;;;4.52;84.90
62697;BME280;48761;42.680;23.312;2023-11-21T06:37:30;94559.72;;;4.18;86.00
62697;BME280;48761;42.680;23.312;2023-11-21T06:39:57;94597.22;;;4.58;85.20
62697;BME280;48761;42.680;23.312;2023-11-21T06:42:25;94607.44;;;4.47;85.70
62697;BME280;48761;42.680;23.312;2023-11-21T06:44:52;94617.41;;;4.76;84.51
62697;BME280;48761;42.680;23.312;2023-11-21T06:47:18;94588.38;;;4.95;84.12
62697;BME280;48761;42.680;23.312;2023-11-21T06:49:46;94629.09;;;5.74;82.00
62697;BME280;48761;42.680;23.312;2023-11-21T06:52:12;94614.28;;;5.87;81.03
62697;BME280;48761;42.680;23.312;2023-11-21T06:54:38;94621.03;;;6.09;79.64
62697;BME280;48761;42.680;23.312;2023-11-21T06:57:04;94613.88;;;6.11;79.90
62697;BME280;48761;42.680;23.312;2023-11-21T06:59:30;94622.41;;;6.16;79.45
62697;BME280;48761;42.680;23.312;2023-11-21T07:01:56;94598.63;;;6.64;78.02
62697;BME280;48761;42.680;23.312;2023-11-21T07:04:21;94623.91;;;6.99;76.35
62697;BME280;48761;42.680;23.312;2023-11-21T07:06:48;94608.91;;;6.99;75.95
62697;BME280;48761;42.680;23.312;2023-11-21T07:09:14;94604.81;;;6.93;75.77
62697;BME280;48761;42.680;23.312;2023-11-21T07:11:40;94587.19;;;6.63;75.64
62697;BME280;48761;42.680;23.312;2023-11-21T07:14:06;94600.22;;;6.35;77.19
62697;BME280;48761;42.680;23.312;2023-11-21T07:16:38;94605.16;;;6.42;76.76
62697;BME280;48761;42.680;23.312;2023-11-21T07:19:05;94596.50;;;6.23;78.17
62697;BME280;48761;42.680;23.312;2023-11-21T07:21:35;94604.31;;;6.41;77.32
62697;BME280;48761;42.680;23.312;2023-11-21T07:24:03;94609.75;;;5.89;79.24
62697;BME280;48761;42.680;23.312;2023-11-21T07:26:30;94596.31;;;5.78;79.59
62697;BME280;48761;42.680;23.312;2023-11-21T07:28:56;94615.91;;;6.06;79.65
62697;BME280;48761;42.680;23.312;2023-11-21T07:31:23;94587.78;;;6.37;77.39
62697;BME280;48761;42.680;23.312;2023-11-21T07:33:49;94612.16;;;6.26;78.03
62697;BME280;48761;42.680;23.312;2023-11-21T07:36:15;94602.44;;;5.94;79.45
62697;BME280;48761;42.680;23.312;2023-11-21T07:38:42;94611.72;;;6.02;79.50
62697;BME280;48761;42.680;23.312;2023-11-21T07:41:08;94608.13;;;5.87;80.16
62697;BME280;48761;42.680;23.312;2023-11-21T07:43:35;94617.78;;;6.04;79.66
62697;BME280;48761;42.680;23.312;2023-11-21T07:46:02;94607.88;;;6.71;77.44
62697;BME280;48761;42.680;23.312;2023-11-21T07:48:29;94611.91;;;5.99;79.47
62697;BME280;48761;42.680;23.312;2023-11-21T07:50:56;94603.63;;;6.37;78.35
62697;BME280;48761;42.680;23.312;2023-11-21T07:53:22;94601.09;;;6.67;77.08
62697;BME280;48761;42.680;23.312;2023-11-21T07:55:48;94599.84;;;6.72;76.77
62697;BME280;48761;42.680;23.312;2023-11-21T07:58:14;94600.97;;;7.14;74.50
62697;BME280;48761;42.680;23.312;2023-11-21T08:00:40;94587.75;;;7.28;74.28
62697;BME280;48761;42.680;23.312;2023-11-21T08:03:06;94587.31;;;6.61;75.78
62697;BME280;48761;42.680;23.312;2023-11-21T08:05:32;94585.22;;;6.52;76.86
62697;BME280;48761;42.680;23.312;2023-11-21T08:07:58;94579.94;;;6.52;76.98
62697;BME280;48761;42.680;23.312;2023-11-21T08:10:24;94597.63;;;6.50;76.62
62697;BME280;48761;42.680;23.312;2023-11-21T08:12:49;94585.81;;;6.72;76.14
62697;BME280;48761;42.680;23.312;2023-11-21T08:15:15;94587.94;;;6.96;75.57
62697;BME280;48761;42.680;23.312;2023-11-21T08:17:41;94588.50;;;7.16;74.98
62697;BME280;48761;42.680;23.312;2023-11-21T08:20:08;94580.88;;;7.40;73.77
62697;BME280;48761;42.680;23.312;2023-11-21T08:22:34;94582.56;;;7.71;72.90
62697;BME280;48761;42.680;23.312;2023-11-21T08:25:00;94589.75;;;7.39;73.43
62697;BME280;48761;42.680;23.312;2023-11-21T08:27:26;94584.09;;;6.71;75.81
62697;BME280;48761;42.680;23.312;2023-11-21T08:29:52;94575.03;;;6.75;75.75
62697;BME280;48761;42.680;23.312;2023-11-21T08:32:18;94580.78;;;7.27;74.50
62697;BME280;48761;42.680;23.312;2023-11-21T08:34:44;94587.56;;;7.61;73.54
62697;BME280;48761;42.680;23.312;2023-11-21T08:37:10;94561.53;;;7.25;74.02
62697;BME280;48761;42.680;23.312;2023-11-21T08:39:37;94587.75;;;7.58;74.08
62697;BME280;48761;42.680;23.312;2023-11-21T08:42:03;94577.38;;;7.40;73.93
62697;BME280;48761;42.680;23.312;2023-11-21T08:44:29;94588.91;;;7.39;74.03
62697;BME280;48761;42.680;23.312;2023-11-21T08:46:55;94562.47;;;7.24;73.91
62697;BME280;48761;42.680;23.312;2023-11-21T08:49:22;94571.91;;;7.28;73.82
62697;BME280;48761;42.680;23.312;2023-11-21T08:51:48;56096.16;;;-149.65;100.00
62697;BME280;48761;42.680;23.312;2023-11-21T08:54:15;56096.16;;;-149.65;100.00
62697;BME280;48761;42.680;23.312;2023-11-21T08:56:43;56096.16;;;-149.65;100.00
62697;BME280;48761;42.680;23.312;2023-11-21T08:59:09;56096.16;;;-149.65;100.00
62697;BME280;48761;42.680;23.312;2023-11-21T09:01:35;56096.16;;;-149.65;100.00
62697;BME280;48761;42.680;23.312;2023-11-21T09:04:01;56096.16;;;-149.65;100.00
62697;BME280;48761;42.680;23.312;2023-11-21T09:06:27;56096.16;;;-149.65;100.00
62697;BME280;48761;42.680;23.312;2023-11-21T09:08:53;56096.16;;;-149.65;100.00
62697;BME280;48761;42.680;23.312;2023-11-21T09:11:19;56096.16;;;-149.65;100.00
62697;BME280;48761;42.680;23.312;2023-11-21T09:13:45;56096.16;;;-149.65;100.00
62697;BME280;48761;42.680;23.312;2023-11-21T09:16:11;56096.16;;;-149.65;100.00
62697;BME280;48761;42.680;23.312;2023-11-21T09:18:37;56096.16;;;-149.65;100.00
62697;BME280;48761;42.680;23.312;2023-11-21T09:21:03;56096.16;;;-149.65;100.00
62697;BME280;48761;42.680;23.312;2023-11-21T09:23:30;56096.16;;;-149.65;100.00
62697;BME280;48761;42.680;23.312;2023-11-21T09:25:56;56096.16;;;-149.65;100.00
62697;BME280;48761;42.680;23.312;2023-11-21T09:28:21;56096.16;;;-149.65;100.00
62697;BME280;48761;42.680;23.312;2023-11-21T09:30:47;56096.16;;;-149.65;100.00
62697;BME280;48761;42.680;23.312;2023-11-21T09:33:13;56096.16;;;-149.65;100.00
62697;BME280;48761;42.680;23.312;2023-11-21T09:35:39;56096.16;;;-149.65;100.00
62697;BME280;48761;42.680;23.312;2023-11-21T09:38:05;56096.16;;;-149.65;100.00
62697;BME280;48761;42.680;23.312;2023-11-21T09:40:31;56096.16;;;-149.65;100.00
62697;BME280;48761;42.680;23.312;2023-11-21T09:42:58;56096.16;;;-149.65;100.00
62697;BME280;48761;42.680;23.312;2023-11-21T09:45:35;56096.16;;;-149.65;100.00
62697;BME280;48761;42.680;23.312;2023-11-21T09:48:01;56096.16;;;-149.65;100.00
62697;BME280;48761;42.680;23.312;2023-11-21T09:50:28;56096.16;;;-149.65;100.00
62697;BME280;48761;42.680;23.312;2023-11-21T09:55:35;56096.16;;;-149.65;100.00
62697;BME280;48761;42.680;23.312;2023-11-21T09:58:02;56096.16;;;-149.65;100.00
62697;BME280;48761;42.680;23.312;2023-11-21T10:00:30;56096.16;;;-149.65;100.00
62697;BME280;48761;42.680;23.312;2023-11-21T10:02:57;56096.16;;;-149.65;100.00
62697;BME280;48761;42.680;23.312;2023-11-21T10:05:24;56096.16;;;-149.65;100.00
62697;BME280;48761;42.680;23.312;2023-11-21T10:07:52;56096.16;;;-149.65;100.00
62697;BME280;48761;42.680;23.312;2023-11-21T10:10:19;56096.16;;;-149.65;100.00
62697;BME280;48761;42.680;23.312;2023-11-21T10:12:50;56096.16;;;-149.65;100.00
62697;BME280;48761;42.680;23.312;2023-11-21T10:15:16;56096.16;;;-149.65;100.00
62697;BME280;48761;42.680;23.312;2023-11-21T10:17:44;56096.16;;;-149.65;100.00
62697;BME280;48761;42.680;23.312;2023-11-21T10:20:11;56096.16;;;-149.65;100.00
62697;BME280;48761;42.680;23.312;2023-11-21T10:22:42;56096.16;;;-149.65;100.00
62697;BME280;48761;42.680;23.312;2023-11-21T10:25:10;56096.16;;;-149.65;100.00
62697;BME280;48761;42.680;23.312;2023-11-21T10:27:38;56096.16;;;-149.65;100.00
62697;BME280;48761;42.680;23.312;2023-11-21T10:30:06;56096.16;;;-149.65;100.00
62697;BME280;48761;42.680;23.312;2023-11-21T10:32:32;56096.16;;;-149.65;100.00
62697;BME280;48761;42.680;23.312;2023-11-21T10:35:00;56096.16;;;-149.65;100.00
62697;BME280;48761;42.680;23.312;2023-11-21T10:37:26;56096.16;;;-149.65;100.00
62697;BME280;48761;42.680;23.312;2023-11-21T10:39:57;56096.16;;;-149.65;100.00
62697;BME280;48761;42.680;23.312;2023-11-21T10:42:23;56096.16;;;-149.65;100.00
62697;BME280;48761;42.680;23.312;2023-11-21T10:44:49;56096.16;;;-149.65;100.00
62697;BME280;48761;42.680;23.312;2023-11-21T10:47:15;56096.16;;;-149.65;100.00
62697;BME280;48761;42.680;23.312;2023-11-21T10:49:41;56096.16;;;-149.65;100.00
62697;BME280;48761;42.680;23.312;2023-11-21T10:52:07;56096.16;;;-149.65;100.00
62697;BME280;48761;42.680;23.312;2023-11-21T10:54:34;56096.16;;;-149.65;100.00
62697;BME280;48761;42.680;23.312;2023-11-21T10:57:00;56096.16;;;-149.65;100.00
62697;BME280;48761;42.680;23.312;2023-11-21T10:59:30;56096.16;;;-149.65;100.00
62697;BME280;48761;42.680;23.312;2023-11-21T11:01:58;56096.16;;;-149.65;100.00
62697;BME280;48761;42.680;23.312;2023-11-21T11:04:34;56096.16;;;-149.65;100.00
62697;BME280;48761;42.680;23.312;2023-11-21T11:07:02;56096.16;;;-149.65;100.00
62697;BME280;48761;42.680;23.312;2023-11-21T11:09:31;56096.16;;;-149.65;100.00
62697;BME280;48761;42.680;23.312;2023-11-21T11:11:57;56096.16;;;-149.65;100.00
62697;BME280;48761;42.680;23.312;2023-11-21T11:14:23;56096.16;;;-149.65;100.00
62697;BME280;48761;42.680;23.312;2023-11-21T11:16:50;56096.16;;;-149.65;100.00
62697;BME280;48761;42.680;23.312;2023-11-21T11:19:17;56096.16;;;-149.65;100.00
62697;BME280;48761;42.680;23.312;2023-11-21T11:27:30;56096.16;;;-149.65;100.00
62697;BME280;48761;42.680;23.312;2023-11-21T11:35:46;56096.16;;;-149.65;100.00
62697;BME280;48761;42.680;23.312;2023-11-21T11:38:15;56096.16;;;-149.65;100.00
62697;BME280;48761;42.680;23.312;2023-11-21T11:40:45;56096.16;;;-149.65;100.00
62697;BME280;48761;42.680;23.312;2023-11-21T11:43:11;56096.16;;;-149.65;100.00
62697;BME280;48761;42.680;23.312;2023-11-21T11:45:37;56096.16;;;-149.65;100.00
62697;BME280;48761;42.680;23.312;2023-11-21T11:48:05;56096.16;;;-149.65;100.00
62697;BME280;48761;42.680;23.312;2023-11-21T11:50:31;56096.16;;;-149.65;100.00
62697;BME280;48761;42.680;23.312;2023-11-21T11:53:15;56096.16;;;-149.65;100.00
62697;BME280;48761;42.680;23.312;2023-11-21T11:55:41;56096.16;;;-149.65;100.00
62697;BME280;48761;42.680;23.312;2023-11-21T11:58:07;56096.16;;;-149.65;100.00
62697;BME280;48761;42.680;23.312;2023-11-21T12:00:34;56096.16;;;-149.65;100.00
62697;BME280;48761;42.680;23.312;2023-11-21T12:03:02;56096.16;;;-149.65;100.00
62697;BME280;48761;42.680;23.312;2023-11-21T12:05:29;56096.16;;;-149.65;100.00
62697;BME280;48761;42.680;23.312;2023-11-21T12:08:06;56096.16;;;-149.65;100.00
62697;BME280;48761;42.680;23.312;2023-11-21T12:10:34;56096.16;;;-149.65;100.00
62697;BME280;48761;42.680;23.312;2023-11-21T12:13:08;56096.16;;;-149.65;100.00
62697;BME280;48761;42.680;23.312;2023-11-21T12:15:34;56096.16;;;-149.65;100.00
62697;BME280;48761;42.680;23.312;2023-11-21T12:18:00;56096.16;;;-149.65;100.00
62697;BME280;48761;42.680;23.312;2023-11-21T12:20:27;56096.16;;;-149.65;100.00
62697;BME280;48761;42.680;23.312;2023-11-21T12:22:55;56096.16;;;-149.65;100.00
62697;BME280;48761;42.680;23.312;2023-11-21T12:25:26;56096.16;;;-149.65;100.00
62697;BME280;48761;42.680;23.312;2023-11-21T12:27:52;56096.16;;;-149.65;100.00
62697;BME280;48761;42.680;23.312;2023-11-21T12:30:20;56096.16;;;-149.65;100.00
62697;BME280;48761;42.680;23.312;2023-11-21T12:32:51;56096.16;;;-149.65;100.00
62697;BME280;48761;42.680;23.312;2023-11-21T12:35:18;56096.16;;;-149.65;100.00
62697;BME280;48761;42.680;23.312;2023-11-21T12:37:44;56096.16;;;-149.65;100.00
62697;BME280;48761;42.680;23.312;2023-11-21T12:40:11;56096.16;;;-149.65;100.00
62697;BME280;48761;42.680;23.312;2023-11-21T12:42:39;56096.16;;;-149.65;100.00
62697;BME280;48761;42.680;23.312;2023-11-21T12:47:44;56096.16;;;-149.65;100.00
62697;BME280;48761;42.680;23.312;2023-11-21T12:50:10;56096.16;;;-149.65;100.00
62697;BME280;48761;42.680;23.312;2023-11-21T12:52:38;56096.16;;;-149.65;100.00
62697;BME280;48761;42.680;23.312;2023-11-21T12:55:04;56096.16;;;-149.65;100.00
62697;BME280;48761;42.680;23.312;2023-11-21T12:57:30;56096.16;;;-149.65;100.00
62697;BME280;48761;42.680;23.312;2023-11-21T12:59:59;56096.16;;;-149.65;100.00
62697;BME280;48761;42.680;23.312;2023-11-21T13:02:26;56096.16;;;-149.65;100.00
62697;BME280;48761;42.680;23.312;2023-11-21T13:04:52;56096.16;;;-149.65;100.00